Time;durP1;ratioP1;P1;durP2;ratioP2;P2;SDS_P1;SDS_P2;PMS_P1;PMS_P2;Temp;Humidity;BMP_temperature;BMP_pressure;BME280_temperature;BME280_humidity;BME280_pressure;Samples;Min_cycle;Max_cycle;Signal;HPM_P1;HPM_P2
2022/08/22 00:01:19;;;;;;;12.07;3.40;;;;;;;;;;5084584;28;20052;-73
2022/08/22 00:03:55;;;;;;;12.88;3.03;;;;;;;;;;5091355;28;20032;-72
2022/08/22 00:06:25;;;;;;;15.90;3.22;;;;;;;;;;5091499;28;20032;-73
2022/08/22 00:09:04;;;;;;;13.65;3.40;;;;;;;;;;5080709;28;20032;-75
2022/08/22 00:11:42;;;;;;;13.32;3.50;;;;;;;;;;5088494;28;20040;-73
2022/08/22 00:14:08;;;;;;;12.02;2.38;;;;;;;;;;5076597;28;20489;-73
2022/08/22 00:16:41;;;;;;;14.10;3.22;;;;;;;;;;5074987;28;20023;-73
2022/08/22 00:19:23;;;;;;;15.65;2.97;;;;;;;;;;5075612;28;20401;-73
2022/08/22 00:21:49;;;;;;;13.80;3.67;;;;;;;;;;5075473;28;20378;-76
2022/08/22 00:24:29;;;;;;;12.52;3.00;;;;;;;;;;5075337;28;20035;-74
2022/08/22 00:27:00;;;;;;;15.52;3.80;;;;;;;;;;5075040;28;20052;-75
2022/08/22 00:29:32;;;;;;;15.70;3.20;;;;;;;;;;5076255;28;20040;-73
2022/08/22 00:32:06;;;;;;;16.35;3.38;;;;;;;;;;5081657;28;20031;-72
2022/08/22 00:34:39;;;;;;;17.85;2.88;;;;;;;;;;5075517;28;20032;-73
2022/08/22 00:37:17;;;;;;;18.20;3.53;;;;;;;;;;5075209;28;20036;-73
2022/08/22 00:39:50;;;;;;;13.68;2.90;;;;;;;;;;5079116;28;20422;-72
2022/08/22 00:42:20;;;;;;;13.18;3.20;;;;;;;;;;5075598;28;20024;-73
2022/08/22 00:44:45;;;;;;;15.82;3.42;;;;;;;;;;5075209;28;20036;-74
2022/08/22 00:47:20;;;;;;;17.15;3.47;;;;;;;;;;5075722;28;20020;-74
2022/08/22 00:50:06;;;;;;;15.35;3.72;;;;;;;;;;5077842;28;20033;-75
2022/08/22 00:52:53;;;;;;;15.55;3.20;;;;;;;;;;5074458;28;20100;-73
2022/08/22 00:55:30;;;;;;;15.00;3.30;;;;;;;;;;5074299;28;20094;-74
2022/08/22 00:58:02;;;;;;;18.73;3.83;;;;;;;;;;5074380;28;20031;-74
2022/08/22 01:00:30;;;;;;;12.35;3.33;;;;;;;;;;5074321;28;20020;-73
2022/08/22 01:03:13;;;;;;;20.98;3.58;;;;;;;;;;5074525;28;20055;-74
2022/08/22 01:05:50;;;;;;;16.55;3.92;;;;;;;;;;5074225;28;20024;-72
2022/08/22 01:08:35;;;;;;;13.70;3.47;;;;;;;;;;5074128;28;20035;-73
2022/08/22 01:11:07;;;;;;;12.40;3.53;;;;;;;;;;5074149;28;20028;-74
2022/08/22 01:13:33;;;;;;;17.35;4.15;;;;;;;;;;5073460;28;20424;-73
2022/08/22 01:16:14;;;;;;;15.55;3.92;;;;;;;;;;5073678;28;20035;-74
2022/08/22 01:18:51;;;;;;;14.15;3.15;;;;;;;;;;5074154;28;20036;-73
2022/08/22 01:21:16;;;;;;;14.25;4.25;;;;;;;;;;5074042;28;20036;-73
2022/08/22 01:24:11;;;;;;;22.15;4.05;;;;;;;;;;5073896;28;20025;-74
2022/08/22 01:26:39;;;;;;;13.70;3.67;;;;;;;;;;5073549;28;20028;-73
2022/08/22 01:29:24;;;;;;;10.38;2.90;;;;;;;;;;5074286;28;20044;-75
2022/08/22 01:32:08;;;;;;;12.07;3.08;;;;;;;;;;5074073;28;20538;-73
2022/08/22 01:34:43;;;;;;;18.92;3.83;;;;;;;;;;5073546;28;20086;-72
2022/08/22 01:37:28;;;;;;;15.40;3.58;;;;;;;;;;5074126;28;20056;-74
2022/08/22 01:40:19;;;;;;;17.55;3.92;;;;;;;;;;5074967;28;20112;-73
2022/08/22 01:43:03;;;;;;;18.52;3.80;;;;;;;;;;5074780;28;20024;-73
2022/08/22 01:45:52;;;;;;;17.00;3.58;;;;;;;;;;5074698;28;20432;-74
2022/08/22 01:48:40;;;;;;;12.85;3.28;;;;;;;;;;5081416;28;20040;-75
2022/08/22 01:51:27;;;;;;;14.70;3.25;;;;;;;;;;5075051;28;20414;-73
2022/08/22 01:54:11;;;;;;;14.55;3.75;;;;;;;;;;5060596;28;20067;-74
2022/08/22 01:56:45;;;;;;;16.30;3.72;;;;;;;;;;5053715;28;20024;-74
2022/08/22 01:59:14;;;;;;;14.45;3.30;;;;;;;;;;5053921;28;20057;-74
2022/08/22 02:01:50;;;;;;;12.07;3.03;;;;;;;;;;5054320;28;20021;-74
2022/08/22 02:04:19;;;;;;;16.35;4.28;;;;;;;;;;5069313;28;20108;-73
2022/08/22 02:06:50;;;;;;;18.17;3.60;;;;;;;;;;5074373;28;20102;-72
2022/08/22 02:09:29;;;;;;;16.00;3.90;;;;;;;;;;5074320;28;20400;-74
2022/08/22 02:11:59;;;;;;;18.50;3.55;;;;;;;;;;5074451;28;20488;-74
2022/08/22 02:14:26;;;;;;;14.45;4.07;;;;;;;;;;5076868;28;20024;-74
2022/08/22 02:16:56;;;;;;;17.50;6.03;;;;;;;;;;5079463;28;20069;-72
2022/08/22 02:19:25;;;;;;;15.00;4.03;;;;;;;;;;5085496;28;20043;-72
2022/08/22 02:21:55;;;;;;;15.68;3.30;;;;;;;;;;5082854;28;20028;-73
2022/08/22 02:24:35;;;;;;;13.02;3.17;;;;;;;;;;5083482;28;20028;-72
2022/08/22 02:27:07;;;;;;;15.52;3.33;;;;;;;;;;5085938;28;20020;-72
2022/08/22 02:29:40;;;;;;;12.10;2.72;;;;;;;;;;5076180;28;20029;-73
2022/08/22 02:32:09;;;;;;;14.48;3.63;;;;;;;;;;5074139;28;20374;-73
2022/08/22 02:34:36;;;;;;;16.40;3.75;;;;;;;;;;5074341;28;20025;-72
2022/08/22 02:37:08;;;;;;;15.38;3.60;;;;;;;;;;5074595;28;20028;-74
2022/08/22 02:39:35;;;;;;;12.88;3.15;;;;;;;;;;5074083;28;20060;-72
2022/08/22 02:42:01;;;;;;;12.40;3.50;;;;;;;;;;5077741;28;20025;-73
2022/08/22 02:44:33;;;;;;;14.68;3.47;;;;;;;;;;5082947;28;20122;-74
2022/08/22 02:47:03;;;;;;;14.00;3.25;;;;;;;;;;5073125;28;20594;-78
2022/08/22 02:49:32;;;;;;;16.00;3.45;;;;;;;;;;5073207;28;20016;-74
2022/08/22 02:52:05;;;;;;;15.40;3.83;;;;;;;;;;5073295;28;20415;-73
2022/08/22 02:54:42;;;;;;;18.50;3.58;;;;;;;;;;5073148;28;20035;-74
2022/08/22 02:57:10;;;;;;;13.02;3.80;;;;;;;;;;5072747;28;20108;-72
2022/08/22 02:59:55;;;;;;;19.48;3.90;;;;;;;;;;5072393;28;20024;-72
2022/08/22 03:02:36;;;;;;;17.27;3.42;;;;;;;;;;5072641;28;20508;-73
2022/08/22 03:05:16;;;;;;;12.52;3.63;;;;;;;;;;5072336;28;20400;-73
2022/08/22 03:08:01;;;;;;;15.70;3.50;;;;;;;;;;5069897;28;20024;-73
2022/08/22 03:10:30;;;;;;;15.32;3.92;;;;;;;;;;5072308;28;20024;-74
2022/08/22 03:13:07;;;;;;;13.43;3.70;;;;;;;;;;5072507;28;20028;-73
2022/08/22 03:15:40;;;;;;;12.50;4.22;;;;;;;;;;5072401;28;20051;-72
2022/08/22 03:18:16;;;;;;;18.10;3.83;;;;;;;;;;5073111;28;20036;-73
2022/08/22 03:20:58;;;;;;;14.43;4.13;;;;;;;;;;5073870;28;20035;-74
2022/08/22 03:23:41;;;;;;;15.07;3.95;;;;;;;;;;5072985;28;20107;-74
2022/08/22 03:26:11;;;;;;;12.57;3.50;;;;;;;;;;5073386;28;20033;-72
2022/08/22 03:28:42;;;;;;;18.77;3.58;;;;;;;;;;5072391;28;20023;-73
2022/08/22 03:31:15;;;;;;;17.52;4.10;;;;;;;;;;5072755;28;20376;-74
2022/08/22 03:33:42;;;;;;;15.57;3.57;;;;;;;;;;5072551;28;20021;-74
2022/08/22 03:36:13;;;;;;;19.02;3.78;;;;;;;;;;5072281;28;20745;-73
2022/08/22 03:38:47;;;;;;;15.70;4.03;;;;;;;;;;5072248;28;20392;-74
2022/08/22 03:41:13;;;;;;;14.30;4.15;;;;;;;;;;5072550;28;20054;-75
2022/08/22 03:43:49;;;;;;;16.15;4.47;;;;;;;;;;5072736;28;20044;-74
2022/08/22 03:46:24;;;;;;;10.55;3.38;;;;;;;;;;5072027;28;20024;-74
2022/08/22 03:49:05;;;;;;;19.52;3.70;;;;;;;;;;5072349;28;20025;-73
2022/08/22 03:51:31;;;;;;;15.45;4.00;;;;;;;;;;5072584;28;20393;-70
2022/08/22 03:54:16;;;;;;;16.13;4.28;;;;;;;;;;5072459;28;20039;-72
2022/08/22 03:56:48;;;;;;;13.15;3.58;;;;;;;;;;5071209;28;20021;-71
2022/08/22 03:59:14;;;;;;;13.80;4.03;;;;;;;;;;5072381;28;20028;-71
2022/08/22 04:01:40;;;;;;;18.58;3.78;;;;;;;;;;5072865;28;20099;-72
2022/08/22 04:04:25;;;;;;;21.02;4.53;;;;;;;;;;5072936;28;20467;-71
2022/08/22 04:07:15;;;;;;;16.08;4.25;;;;;;;;;;5072555;28;20063;-71
2022/08/22 04:09:41;;;;;;;16.40;4.00;;;;;;;;;;5086510;28;20051;-70
2022/08/22 04:12:23;;;;;;;17.48;4.15;;;;;;;;;;5072488;28;20020;-70
2022/08/22 04:15:09;;;;;;;24.80;4.32;;;;;;;;;;5072232;28;20366;-71
2022/08/22 04:17:35;;;;;;;16.92;4.20;;;;;;;;;;5064019;28;20044;-71
2022/08/22 04:20:10;;;;;;;17.55;3.83;;;;;;;;;;5072480;28;20396;-70
2022/08/22 04:22:48;;;;;;;14.02;4.10;;;;;;;;;;5071862;28;20060;-73
2022/08/22 04:25:33;;;;;;;21.27;4.80;;;;;;;;;;5072284;28;20045;-74
2022/08/22 04:28:07;;;;;;;21.25;6.45;;;;;;;;;;5072548;28;20473;-73
2022/08/22 04:30:36;;;;;;;21.25;5.80;;;;;;;;;;5073248;28;20396;-73
2022/08/22 04:33:06;;;;;;;22.23;5.65;;;;;;;;;;5075498;28;20021;-74
2022/08/22 04:35:35;;;;;;;16.95;5.03;;;;;;;;;;5072463;28;20039;-74
2022/08/22 04:38:21;;;;;;;16.85;4.82;;;;;;;;;;5072583;28;20024;-74
2022/08/22 04:40:53;;;;;;;18.27;5.72;;;;;;;;;;5072597;28;20074;-70
2022/08/22 04:43:25;;;;;;;19.77;4.85;;;;;;;;;;5072661;28;20116;-71
2022/08/22 04:45:50;;;;;;;19.45;5.00;;;;;;;;;;5082281;28;20388;-71
2022/08/22 04:48:25;;;;;;;20.70;4.80;;;;;;;;;;5086291;28;20012;-76
2022/08/22 04:50:52;;;;;;;;;;;;;;;;;;5099259;28;20043;-77
2022/08/22 04:53:38;;;;;;;17.20;4.40;;;;;;;;;;5098042;28;19900;-78
2022/08/22 04:56:10;;;;;;;18.73;4.97;;;;;;;;;;5076359;28;20052;-71
2022/08/22 04:59:08;;;;;;;15.95;4.45;;;;;;;;;;5086613;28;20020;-71
2022/08/22 05:02:05;;;;;;;16.73;4.72;;;;;;;;;;5052756;28;20036;-72
2022/08/22 05:04:44;;;;;;;16.13;4.60;;;;;;;;;;5075203;28;20557;-71
2022/08/22 05:07:12;;;;;;;15.65;4.47;;;;;;;;;;5075946;28;20484;-71
2022/08/22 05:09:40;;;;;;;14.00;4.65;;;;;;;;;;5076749;28;20024;-72
2022/08/22 05:12:08;;;;;;;13.55;4.20;;;;;;;;;;5076979;28;20040;-74
2022/08/22 05:14:36;;;;;;;20.60;4.70;;;;;;;;;;5075943;28;20044;-71
2022/08/22 05:17:05;;;;;;;16.23;4.18;;;;;;;;;;5074737;28;20127;-70
2022/08/22 05:19:33;;;;;;;13.00;4.57;;;;;;;;;;5079904;28;20102;-71
2022/08/22 05:22:00;;;;;;;14.65;4.45;;;;;;;;;;5084716;28;20314;-71
2022/08/22 05:24:33;;;;;;;17.98;5.57;;;;;;;;;;5079123;28;20032;-72
2022/08/22 05:27:03;;;;;;;19.27;4.30;;;;;;;;;;5078476;28;20025;-69
2022/08/22 05:29:30;;;;;;;15.77;4.00;;;;;;;;;;5074923;28;20029;-71
2022/08/22 05:32:08;;;;;;;17.77;4.28;;;;;;;;;;5076250;28;20385;-69
2022/08/22 05:34:39;;;;;;;21.17;5.15;;;;;;;;;;5077483;28;20542;-70
2022/08/22 05:37:11;;;;;;;15.98;4.30;;;;;;;;;;5074876;28;20032;-70
2022/08/22 05:39:38;;;;;;;18.27;4.78;;;;;;;;;;5075695;28;20032;-72
2022/08/22 05:42:04;;;;;;;18.10;4.78;;;;;;;;;;5075328;28;20082;-71
2022/08/22 05:44:32;;;;;;;19.85;4.60;;;;;;;;;;5074862;28;20104;-70
2022/08/22 05:47:04;;;;;;;12.68;3.90;;;;;;;;;;5074986;28;20441;-73
2022/08/22 05:49:36;;;;;;;14.13;4.28;;;;;;;;;;5075511;28;20032;-71
2022/08/22 05:52:20;;;;;;;15.57;4.57;;;;;;;;;;5075402;28;20052;-71
2022/08/22 05:54:55;;;;;;;17.90;4.32;;;;;;;;;;5074750;28;20032;-74
2022/08/22 05:57:27;;;;;;;17.42;4.18;;;;;;;;;;5074924;28;20111;-71
2022/08/22 05:59:59;;;;;;;19.67;5.35;;;;;;;;;;5076785;28;20029;-71
2022/08/22 06:02:34;;;;;;;19.50;6.35;;;;;;;;;;5077852;28;20099;-71
2022/08/22 06:05:01;;;;;;;24.25;5.30;;;;;;;;;;5076517;28;20025;-73
2022/08/22 06:07:30;;;;;;;19.05;5.80;;;;;;;;;;5075876;28;20029;-74
2022/08/22 06:09:59;;;;;;;17.95;5.22;;;;;;;;;;5075943;28;20509;-72
2022/08/22 06:12:32;;;;;;;18.48;5.18;;;;;;;;;;5076328;28;20466;-73
2022/08/22 06:15:12;;;;;;;24.15;6.88;;;;;;;;;;5075500;28;20033;-79
2022/08/22 06:17:41;;;;;;;32.75;11.93;;;;;;;;;;5075821;28;20028;-74
2022/08/22 06:20:08;;;;;;;20.52;5.20;;;;;;;;;;5077029;28;20473;-73
2022/08/22 06:22:36;;;;;;;16.92;5.13;;;;;;;;;;5077210;28;20065;-72
2022/08/22 06:25:13;;;;;;;19.52;6.03;;;;;;;;;;5076677;28;20055;-72
2022/08/22 06:27:40;;;;;;;17.67;5.88;;;;;;;;;;5076000;28;20028;-73
2022/08/22 06:30:07;;;;;;;25.92;6.20;;;;;;;;;;5076548;28;20025;-74
2022/08/22 06:32:35;;;;;;;23.20;6.53;;;;;;;;;;5074988;28;20460;-77
2022/08/22 06:35:06;;;;;;;17.80;5.03;;;;;;;;;;5074319;28;20032;-74
2022/08/22 06:37:36;;;;;;;17.27;4.82;;;;;;;;;;5074739;28;20032;-72
2022/08/22 06:40:04;;;;;;;17.65;5.20;;;;;;;;;;5077227;28;20031;-75
2022/08/22 06:42:31;;;;;;;20.33;4.22;;;;;;;;;;5073937;28;20026;-75
2022/08/22 06:45:00;;;;;;;25.58;4.93;;;;;;;;;;5077565;28;20077;-77
2022/08/22 06:47:28;;;;;;;21.60;5.00;;;;;;;;;;5077905;28;20516;-79
2022/08/22 06:50:00;;;;;;;11.70;3.42;;;;;;;;;;5081543;28;20058;-79
2022/08/22 06:52:28;;;;;;;20.85;5.65;;;;;;;;;;5084051;28;20100;-78
2022/08/22 06:54:59;;;;;;;26.23;4.15;;;;;;;;;;5079657;28;20025;-78
2022/08/22 06:57:31;;;;;;;13.48;3.88;;;;;;;;;;5083076;28;20109;-78
2022/08/22 06:59:59;;;;;;;13.52;3.25;;;;;;;;;;5079097;28;20086;-81
2022/08/22 07:02:36;;;;;;;18.70;3.45;;;;;;;;;;5081521;28;20059;-77
2022/08/22 07:05:04;;;;;;;23.02;3.83;;;;;;;;;;5075825;28;20031;-76
2022/08/22 07:07:30;;;;;;;17.35;3.20;;;;;;;;;;5086312;28;20036;-78
2022/08/22 07:09:56;;;;;;;19.13;3.60;;;;;;;;;;5087795;28;20020;-81
2022/08/22 07:12:25;;;;;;;19.45;6.25;;;;;;;;;;5091458;28;20084;-81
2022/08/22 07:14:53;;;;;;;15.30;4.32;;;;;;;;;;5094497;28;20032;-82
2022/08/22 07:17:29;;;;;;;19.15;3.75;;;;;;;;;;5093903;28;20044;-78
2022/08/22 07:19:55;;;;;;;10.27;2.92;;;;;;;;;;5092742;28;20036;-75
2022/08/22 07:22:23;;;;;;;14.35;3.20;;;;;;;;;;5091464;28;20020;-73
2022/08/22 07:25:07;;;;;;;12.77;3.15;;;;;;;;;;5074472;28;20033;-75
2022/08/22 07:27:43;;;;;;;14.13;2.65;;;;;;;;;;5076259;28;20029;-76
2022/08/22 07:30:14;;;;;;;10.80;2.80;;;;;;;;;;5075638;28;20025;-74
2022/08/22 07:32:49;;;;;;;22.73;6.65;;;;;;;;;;5075783;28;20025;-75
2022/08/22 07:35:18;;;;;;;15.45;3.10;;;;;;;;;;5058871;28;20052;-75
2022/08/22 07:37:56;;;;;;;13.55;3.15;;;;;;;;;;5066134;28;20036;-75
2022/08/22 07:40:33;;;;;;;21.67;2.60;;;;;;;;;;5073941;28;20020;-77
2022/08/22 07:43:19;;;;;;;11.35;2.10;;;;;;;;;;5074402;28;20025;-75
2022/08/22 07:45:50;;;;;;;12.40;2.45;;;;;;;;;;5075744;28;20036;-77
2022/08/22 07:48:23;;;;;;;14.02;2.97;;;;;;;;;;5078548;28;20020;-75
2022/08/22 07:51:01;;;;;;;20.70;4.45;;;;;;;;;;5076081;28;20763;-75
2022/08/22 07:53:36;;;;;;;16.67;4.88;;;;;;;;;;5075833;28;20112;-76
2022/08/22 07:56:04;;;;;;;16.50;2.88;;;;;;;;;;5077177;28;20032;-75
2022/08/22 07:58:32;;;;;;;16.10;4.50;;;;;;;;;;5088539;28;20028;-77
2022/08/22 08:00:59;;;;;;;19.38;3.10;;;;;;;;;;5084508;28;20074;-76
2022/08/22 08:03:27;;;;;;;10.27;3.05;;;;;;;;;;5078193;28;20128;-76
2022/08/22 08:05:53;;;;;;;21.83;6.68;;;;;;;;;;5073192;28;20032;-76
2022/08/22 08:08:40;;;;;;;23.52;5.25;;;;;;;;;;5073789;28;20020;-74
2022/08/22 08:11:08;;;;;;;13.38;2.60;;;;;;;;;;5073182;28;20052;-76
2022/08/22 08:13:35;;;;;;;9.30;2.22;;;;;;;;;;5073586;28;20024;-76
2022/08/22 08:16:04;;;;;;;17.48;3.50;;;;;;;;;;5074068;28;20048;-75
2022/08/22 08:18:32;;;;;;;23.85;8.98;;;;;;;;;;5075557;28;20043;-73
2022/08/22 08:21:01;;;;;;;24.40;4.20;;;;;;;;;;5076913;28;20088;-76
2022/08/22 08:23:28;;;;;;;14.60;3.72;;;;;;;;;;5077287;28;20032;-76
2022/08/22 08:26:01;;;;;;;13.57;3.28;;;;;;;;;;5080197;28;20020;-76
2022/08/22 08:28:33;;;;;;;14.15;3.10;;;;;;;;;;5077074;28;20074;-76
2022/08/22 08:31:12;;;;;;;13.40;3.35;;;;;;;;;;5079963;28;20116;-75
2022/08/22 08:33:40;;;;;;;21.20;8.70;;;;;;;;;;5079321;28;20016;-75
2022/08/22 08:36:12;;;;;;;13.10;4.40;;;;;;;;;;5076756;28;20067;-74
2022/08/22 08:38:52;;;;;;;16.77;4.55;;;;;;;;;;5076669;28;20078;-75
2022/08/22 08:41:38;;;;;;;17.38;4.50;;;;;;;;;;5076992;28;20035;-75
2022/08/22 08:44:14;;;;;;;17.33;4.38;;;;;;;;;;5076243;28;20025;-75
2022/08/22 08:46:52;;;;;;;14.65;3.30;;;;;;;;;;5076082;28;20078;-76
2022/08/22 08:49:28;;;;;;;15.60;3.70;;;;;;;;;;5076098;28;20024;-77
2022/08/22 08:52:03;;;;;;;19.60;3.42;;;;;;;;;;5076356;28;20104;-76
2022/08/22 08:54:50;;;;;;;14.05;3.42;;;;;;;;;;5075518;28;20458;-76
2022/08/22 08:57:40;;;;;;;17.20;3.13;;;;;;;;;;5075695;28;20020;-77
2022/08/22 09:00:24;;;;;;;11.95;3.08;;;;;;;;;;5075783;28;20021;-75
2022/08/22 09:03:11;;;;;;;16.08;3.05;;;;;;;;;;5075908;28;20021;-74
2022/08/22 09:05:57;;;;;;;14.85;3.10;;;;;;;;;;5075162;28;20516;-75
2022/08/22 09:08:26;;;;;;;15.18;3.42;;;;;;;;;;5076889;28;20035;-76
2022/08/22 09:11:11;;;;;;;14.98;3.30;;;;;;;;;;5076489;28;20029;-75
2022/08/22 09:13:55;;;;;;;17.45;4.20;;;;;;;;;;5077159;28;20052;-75
2022/08/22 09:16:41;;;;;;;16.88;3.30;;;;;;;;;;5079132;28;20020;-77
2022/08/22 09:19:30;;;;;;;14.35;2.88;;;;;;;;;;5077973;28;20040;-77
2022/08/22 09:22:02;;;;;;;13.27;3.33;;;;;;;;;;5079026;28;20032;-76
2022/08/22 09:24:28;;;;;;;13.40;3.78;;;;;;;;;;5080147;28;20071;-76
2022/08/22 09:27:04;;;;;;;16.00;2.80;;;;;;;;;;5080107;28;20470;-76
2022/08/22 09:29:50;;;;;;;17.20;2.78;;;;;;;;;;5080208;28;20357;-76
2022/08/22 09:32:19;;;;;;;14.15;3.20;;;;;;;;;;5081799;28;20029;-76
2022/08/22 09:34:45;;;;;;;14.55;3.25;;;;;;;;;;5088556;28;20032;-76
2022/08/22 09:37:19;;;;;;;11.95;3.08;;;;;;;;;;5086143;28;20119;-75
2022/08/22 09:40:03;;;;;;;12.68;3.30;;;;;;;;;;5088232;28;20032;-75
2022/08/22 09:42:33;;;;;;;13.77;3.55;;;;;;;;;;5096007;28;20054;-77
2022/08/22 09:44:59;;;;;;;12.82;5.45;;;;;;;;;;5097188;28;20078;-75
2022/08/22 09:47:28;;;;;;;10.00;3.10;;;;;;;;;;5078549;28;20028;-75
2022/08/22 09:50:02;;;;;;;11.70;2.78;;;;;;;;;;5080187;28;20031;-75
2022/08/22 09:52:46;;;;;;;18.80;2.67;;;;;;;;;;5078691;28;20021;-75
2022/08/22 09:55:48;;;;;;;15.63;4.47;;;;;;;;;;5077406;28;20086;-77
2022/08/22 09:58:17;;;;;;;15.48;3.05;;;;;;;;;;5034409;28;20418;-77
2022/08/22 10:00:49;;;;;;;13.80;4.70;;;;;;;;;;5068349;28;20040;-75
2022/08/22 10:03:18;;;;;;;11.93;3.50;;;;;;;;;;5076158;28;20024;-76
2022/08/22 10:05:51;;;;;;;13.52;3.60;;;;;;;;;;5075405;28;20496;-75
2022/08/22 10:08:17;;;;;;;12.93;3.25;;;;;;;;;;5075586;28;20025;-76
2022/08/22 10:10:46;;;;;;;8.75;2.67;;;;;;;;;;5074933;28;20070;-76
2022/08/22 10:13:15;;;;;;;15.07;3.88;;;;;;;;;;5073429;28;20108;-75
2022/08/22 10:15:44;;;;;;;10.73;4.25;;;;;;;;;;5075665;28;20036;-76
2022/08/22 10:18:10;;;;;;;16.05;5.07;;;;;;;;;;5075675;28;20082;-75
2022/08/22 10:20:45;;;;;;;16.35;3.72;;;;;;;;;;5077670;28;20107;-75
2022/08/22 10:23:18;;;;;;;11.07;3.92;;;;;;;;;;5076871;28;20025;-76
2022/08/22 10:25:52;;;;;;;18.55;5.88;;;;;;;;;;5074798;28;20098;-76
2022/08/22 10:28:18;;;;;;;;;;;;;;;;;;5079454;28;20067;-76
2022/08/22 10:30:50;;;;;;;14.48;3.20;;;;;;;;;;5075179;28;20411;-76
2022/08/22 10:33:35;;;;;;;14.02;2.25;;;;;;;;;;5085128;28;20020;-74
2022/08/22 10:36:02;;;;;;;;;;;;;;;;;;5090886;28;20028;-74
2022/08/22 10:38:34;;;;;;;14.00;3.15;;;;;;;;;;5083438;28;19926;-75
2022/08/22 10:41:15;;;;;;;14.95;4.60;;;;;;;;;;5080505;28;20102;-75
2022/08/22 10:44:00;;;;;;;13.60;2.72;;;;;;;;;;5075935;28;20091;-75
2022/08/22 10:46:37;;;;;;;9.65;3.08;;;;;;;;;;5075426;28;20029;-75
2022/08/22 10:49:07;;;;;;;25.60;8.43;;;;;;;;;;5075641;28;20058;-76
2022/08/22 10:51:43;;;;;;;14.02;5.50;;;;;;;;;;5075800;28;20366;-75
2022/08/22 10:54:31;;;;;;;15.75;4.88;;;;;;;;;;5075881;28;20024;-75
2022/08/22 10:57:05;;;;;;;16.67;6.50;;;;;;;;;;5074495;28;20032;-75
2022/08/22 10:59:51;;;;;;;11.00;3.13;;;;;;;;;;5074010;28;20070;-76
2022/08/22 11:02:30;;;;;;;9.57;2.10;;;;;;;;;;5074647;28;20031;-76
2022/08/22 11:05:12;;;;;;;13.20;2.75;;;;;;;;;;5073362;28;20040;-75
2022/08/22 11:07:47;;;;;;;12.38;2.35;;;;;;;;;;5073368;28;20048;-75
2022/08/22 11:10:23;;;;;;;16.45;3.15;;;;;;;;;;5073731;28;20377;-76
2022/08/22 11:13:09;;;;;;;16.50;3.38;;;;;;;;;;5073828;28;20051;-76
2022/08/22 11:15:53;;;;;;;10.65;2.53;;;;;;;;;;5054610;28;20064;-76
2022/08/22 11:18:28;;;;;;;16.08;6.72;;;;;;;;;;5075940;28;20032;-76
2022/08/22 11:21:05;;;;;;;12.68;2.83;;;;;;;;;;5077884;28;20021;-75
2022/08/22 11:23:40;;;;;;;13.85;2.72;;;;;;;;;;5078854;28;20021;-76
2022/08/22 11:26:32;;;;;;;15.02;3.10;;;;;;;;;;5077356;28;20028;-76
2022/08/22 11:29:01;;;;;;;9.27;3.03;;;;;;;;;;5078063;28;20039;-76
2022/08/22 11:31:45;;;;;;;12.60;2.85;;;;;;;;;;5077730;28;20031;-75
2022/08/22 11:34:11;;;;;;;;;;;;;;;;;;5074688;28;20025;-75
2022/08/22 11:36:37;;;;;;;10.57;3.15;;;;;;;;;;5074044;28;19923;-76
2022/08/22 11:39:24;;;;;;;14.82;3.15;;;;;;;;;;5075020;28;20032;-76
2022/08/22 11:41:57;;;;;;;17.33;3.38;;;;;;;;;;5075167;28;20496;-75
2022/08/22 11:44:23;;;;;;;12.68;3.20;;;;;;;;;;5073734;28;20082;-75
2022/08/22 11:46:50;;;;;;;7.65;2.45;;;;;;;;;;5074490;28;20598;-76
2022/08/22 11:49:26;;;;;;;8.38;2.92;;;;;;;;;;5074208;28;20024;-75
2022/08/22 11:51:58;;;;;;;12.73;3.00;;;;;;;;;;5079468;28;20012;-75
2022/08/22 11:54:43;;;;;;;15.70;2.92;;;;;;;;;;5076963;28;20017;-76
2022/08/22 11:57:11;;;;;;;10.85;2.25;;;;;;;;;;5089392;28;20058;-75
2022/08/22 11:59:55;;;;;;;11.32;2.72;;;;;;;;;;5092691;28;20036;-74
2022/08/22 12:02:25;;;;;;;12.52;2.80;;;;;;;;;;5089304;28;20028;-77
2022/08/22 12:04:54;;;;;;;12.45;3.20;;;;;;;;;;5093353;28;20029;-75
2022/08/22 12:07:26;;;;;;;9.68;2.65;;;;;;;;;;5069390;22;20120;-72
2022/08/22 12:09:58;;;;;;;12.18;2.80;;;;;;;;;;5052888;28;20497;-72
2022/08/22 12:12:43;;;;;;;11.88;2.50;;;;;;;;;;5035233;28;20052;-72
2022/08/22 12:15:11;;;;;;;11.18;2.60;;;;;;;;;;5051555;28;20025;-72
2022/08/22 12:17:47;;;;;;;7.85;2.03;;;;;;;;;;5031521;28;20034;-72
2022/08/22 12:20:31;;;;;;;10.55;2.75;;;;;;;;;;5033179;28;20033;-71
2022/08/22 12:23:02;;;;;;;8.10;2.17;;;;;;;;;;5031861;28;20053;-72
2022/08/22 12:25:31;;;;;;;13.02;4.43;;;;;;;;;;5031097;28;20036;-73
2022/08/22 12:28:08;;;;;;;9.18;2.30;;;;;;;;;;5031605;28;20025;-71
2022/08/22 12:30:37;;;;;;;14.45;2.92;;;;;;;;;;5031285;28;20084;-73
2022/08/22 12:33:03;;;;;;;10.65;2.65;;;;;;;;;;5031807;28;20056;-73
2022/08/22 12:35:35;;;;;;;9.18;2.70;;;;;;;;;;5031554;28;20502;-73
2022/08/22 12:38:23;;;;;;;12.63;2.80;;;;;;;;;;5031761;28;20037;-71
2022/08/22 12:41:01;;;;;;;10.10;3.00;;;;;;;;;;5032079;28;20025;-73
2022/08/22 12:43:47;;;;;;;11.93;3.60;;;;;;;;;;5031667;28;20096;-71
2022/08/22 12:46:16;;;;;;;12.75;2.50;;;;;;;;;;5031280;28;20032;-72
2022/08/22 12:48:52;;;;;;;10.48;2.67;;;;;;;;;;5032398;28;20398;-71
2022/08/22 12:51:30;;;;;;;14.85;2.28;;;;;;;;;;5033763;28;20548;-72
2022/08/22 12:53:56;;;;;;;17.80;2.45;;;;;;;;;;5032300;28;20029;-72
2022/08/22 12:56:28;;;;;;;11.57;2.63;;;;;;;;;;5031009;28;20493;-72
2022/08/22 12:58:57;;;;;;;10.75;2.38;;;;;;;;;;5014215;28;20029;-72
2022/08/22 13:01:24;;;;;;;11.38;2.85;;;;;;;;;;5031596;28;20048;-72
2022/08/22 13:03:52;;;;;;;12.10;3.03;;;;;;;;;;5031310;28;20029;-73
2022/08/22 13:06:37;;;;;;;11.27;2.40;;;;;;;;;;5032182;28;20370;-73
2022/08/22 13:09:23;;;;;;;9.55;2.55;;;;;;;;;;5032851;28;20018;-72
2022/08/22 13:11:51;;;;;;;9.77;2.60;;;;;;;;;;5035106;28;20018;-72
2022/08/22 13:14:21;;;;;;;14.73;3.35;;;;;;;;;;5016934;28;20026;-72
2022/08/22 13:16:49;;;;;;;8.93;2.63;;;;;;;;;;5034178;28;20083;-72
2022/08/22 13:19:21;;;;;;;7.82;2.40;;;;;;;;;;5035105;28;20037;-73
2022/08/22 13:21:54;;;;;;;14.40;2.70;;;;;;;;;;5035311;28;20036;-72
2022/08/22 13:24:26;;;;;;;15.82;3.10;;;;;;;;;;5035277;28;20022;-74
2022/08/22 13:26:56;;;;;;;10.45;2.95;;;;;;;;;;5035088;28;20493;-74
2022/08/22 13:29:26;;;;;;;10.57;3.47;;;;;;;;;;5034580;28;20083;-72
2022/08/22 13:31:54;;;;;;;10.23;2.45;;;;;;;;;;5034388;28;20029;-72
2022/08/22 13:34:41;;;;;;;8.43;2.38;;;;;;;;;;5033980;28;20014;-72
2022/08/22 13:37:10;;;;;;;11.90;2.80;;;;;;;;;;5032970;28;20041;-73
2022/08/22 13:39:40;;;;;;;11.43;3.22;;;;;;;;;;5034219;28;20425;-72
2022/08/22 13:42:07;;;;;;;13.82;2.80;;;;;;;;;;5033737;28;20028;-72
2022/08/22 13:44:37;;;;;;;8.57;2.25;;;;;;;;;;5033873;28;20091;-72
2022/08/22 13:47:06;;;;;;;11.48;2.50;;;;;;;;;;5033776;28;20018;-72
2022/08/22 13:49:38;;;;;;;12.95;3.30;;;;;;;;;;5033770;28;20021;-73
2022/08/22 13:52:22;;;;;;;9.02;2.50;;;;;;;;;;5033915;28;20033;-73
2022/08/22 13:54:51;;;;;;;13.05;4.03;;;;;;;;;;5033831;28;20021;-72
2022/08/22 13:57:38;;;;;;;11.10;4.50;;;;;;;;;;5015791;28;20047;-71
2022/08/22 14:00:19;;;;;;;9.63;3.33;;;;;;;;;;5033559;28;20032;-72
2022/08/22 14:02:55;;;;;;;10.60;2.47;;;;;;;;;;5034620;28;20445;-72
2022/08/22 14:05:24;;;;;;;9.98;2.45;;;;;;;;;;5035034;28;20079;-72
2022/08/22 14:08:08;;;;;;;11.80;2.70;;;;;;;;;;5017652;28;20397;-72
2022/08/22 14:10:37;;;;;;;14.65;3.42;;;;;;;;;;5034345;28;20036;-72
2022/08/22 14:13:22;;;;;;;8.45;2.70;;;;;;;;;;5020613;28;20021;-70
2022/08/22 14:15:48;;;;;;;6.85;2.10;;;;;;;;;;5034015;28;20021;-72
2022/08/22 14:18:17;;;;;;;14.70;2.72;;;;;;;;;;5037548;28;20078;-73
2022/08/22 14:20:44;;;;;;;11.70;3.17;;;;;;;;;;5032483;28;20083;-71
2022/08/22 14:23:13;;;;;;;11.68;2.60;;;;;;;;;;5033207;28;20029;-73
2022/08/22 14:25:40;;;;;;;14.88;3.65;;;;;;;;;;5033293;28;20081;-72
2022/08/22 14:28:07;;;;;;;8.30;2.40;;;;;;;;;;5033274;28;20028;-71
2022/08/22 14:30:37;;;;;;;9.27;2.88;;;;;;;;;;5033013;28;20013;-72
2022/08/22 14:33:12;;;;;;;14.70;2.90;;;;;;;;;;5032572;28;20033;-72
2022/08/22 14:35:44;;;;;;;6.50;2.22;;;;;;;;;;5015470;28;20051;-71
2022/08/22 14:38:16;;;;;;;10.63;2.92;;;;;;;;;;5035464;28;20439;-72
2022/08/22 14:40:44;;;;;;;15.65;2.95;;;;;;;;;;5035262;28;20036;-71
2022/08/22 14:43:36;;;;;;;8.00;2.50;;;;;;;;;;5034572;28;20104;-71
2022/08/22 14:46:07;;;;;;;12.55;2.63;;;;;;;;;;5032089;28;20451;-71
2022/08/22 14:48:56;;;;;;;10.68;2.35;;;;;;;;;;5032864;28;20083;-72
2022/08/22 14:51:23;;;;;;;12.18;2.65;;;;;;;;;;4988129;28;20088;-72
2022/08/22 14:53:50;;;;;;;8.73;2.15;;;;;;;;;;5033350;28;20029;-71
2022/08/22 14:56:20;;;;;;;6.53;2.15;;;;;;;;;;5029808;28;20113;-71
2022/08/22 14:58:57;;;;;;;9.52;2.55;;;;;;;;;;5034126;28;20108;-71
2022/08/22 15:01:25;;;;;;;9.02;2.30;;;;;;;;;;5024467;28;20037;-73
2022/08/22 15:04:05;;;;;;;11.35;2.42;;;;;;;;;;5029331;28;20117;-72
2022/08/22 15:06:36;;;;;;;9.65;2.53;;;;;;;;;;5034247;28;20033;-72
2022/08/22 15:09:26;;;;;;;12.30;2.38;;;;;;;;;;5033589;28;20033;-72
2022/08/22 15:11:52;;;;;;;11.43;3.13;;;;;;;;;;5034818;28;20021;-72
2022/08/22 15:14:23;;;;;;;7.47;2.08;;;;;;;;;;5040228;28;20030;-72